Time;durP1;ratioP1;P1;durP2;ratioP2;P2;SDS_P1;SDS_P2;PMS_P1;PMS_P2;Temp;Humidity;BMP_temperature;BMP_pressure;BME280_temperature;BME280_humidity;BME280_pressure;Samples;Min_cycle;Max_cycle;Signal;HPM_P1;HPM_P2
2023/08/22 00:00:02;;;;;;;;;;;;;;;18.89;70.60;100633.66;4955987;28;1117;-85
2023/08/22 00:02:54;;;;;;;;;;;;;;;18.85;70.30;100622.47;4956166;28;1793;-85
2023/08/22 00:05:46;;;;;;;;;;;;;;;18.85;70.57;100625.19;4951787;29;2284;-85
2023/08/22 00:08:38;;;;;;;;;;;;;;;18.91;70.00;100615.09;4962878;28;1378;-85
2023/08/22 00:11:30;;;;;;;;;;;;;;;18.87;70.28;100617.56;4951650;28;994;-85
2023/08/22 00:14:22;;;;;;;;;;;;;;;18.92;69.78;100620.28;4952373;28;1642;-85
2023/08/22 00:17:14;;;;;;;;;;;;;;;18.97;69.60;100617.56;4958940;28;1718;-84
2023/08/22 00:20:08;;;;;;;;;;;;;;;18.89;69.92;100615.38;4953401;28;1312;-85
2023/08/22 00:22:59;;;;;;;;;;;;;;;18.95;69.77;100614.28;4960036;28;1838;-85
2023/08/22 00:25:52;;;;;;;;;;;;;;;18.95;69.63;100613.47;4956411;28;1529;-84
2023/08/22 00:28:43;;;;;;;;;;;;;;;18.91;69.56;100606.91;4959180;28;1957;-85
2023/08/22 00:31:35;;;;;;;;;;;;;;;18.90;69.48;100608.81;4954023;28;1998;-84
2023/08/22 00:34:27;;;;;;;;;;;;;;;18.91;69.50;100605.00;4959739;28;2067;-86
2023/08/22 00:37:19;;;;;;;;;;;;;;;18.93;69.24;100602.00;4952039;28;1969;-85
2023/08/22 00:40:11;;;;;;;;;;;;;;;18.95;69.08;100608.81;4947371;28;1997;-84
2023/08/22 00:43:03;;;;;;;;;;;;;;;18.95;69.05;100595.19;4955420;28;2165;-84
2023/08/22 00:45:55;;;;;;;;;;;;;;;18.94;69.20;100609.09;4956008;28;2399;-85
2023/08/22 00:48:47;;;;;;;;;;;;;;;18.93;69.21;100602.81;4952606;28;2251;-85
2023/08/22 00:51:39;;;;;;;;;;;;;;;18.96;69.15;100596.00;4954367;28;2248;-84
2023/08/22 00:54:31;;;;;;;;;;;;;;;18.93;68.82;100604.72;4953936;28;2494;-86
2023/08/22 00:57:23;;;;;;;;;;;;;;;18.92;68.89;100598.47;4956244;28;1813;-85
2023/08/22 01:00:15;;;;;;;;;;;;;;;18.92;68.80;100594.91;4947462;28;1615;-83
2023/08/22 01:03:07;;;;;;;;;;;;;;;18.92;68.91;100600.38;4953241;28;2067;-85
2023/08/22 01:05:59;;;;;;;;;;;;;;;18.90;68.85;100597.09;4955138;28;2249;-86
2023/08/22 01:08:51;;;;;;;;;;;;;;;18.87;68.77;100603.09;4952245;28;2111;-84
2023/08/22 01:14:49;;;;;;;;;;;;;;;18.88;68.97;100591.91;4953955;28;2063;-84
2023/08/22 01:17:41;;;;;;;;;;;;;;;18.84;68.89;100590.81;4953017;28;2178;-86
2023/08/22 01:20:33;;;;;;;;;;;;;;;18.83;69.04;100597.38;4951697;28;2309;-84
2023/08/22 01:23:25;;;;;;;;;;;;;;;18.84;68.95;100596.28;4952853;28;2102;-84
2023/08/22 01:26:17;;;;;;;;;;;;;;;18.84;68.68;100591.63;4956468;28;2249;-84
2023/08/22 01:29:09;;;;;;;;;;;;;;;18.86;68.73;100585.91;4955970;28;2078;-84
2023/08/22 01:32:04;;;;;;;;;;;;;;;18.83;68.56;100587.28;4953798;28;2399;-84
2023/08/22 01:34:56;;;;;;;;;;;;;;;18.84;68.44;100585.34;4955499;28;2451;-85
2023/08/22 01:37:48;;;;;;;;;;;;;;;18.76;68.84;100585.91;4955238;28;2250;-86
2023/08/22 01:40:40;;;;;;;;;;;;;;;18.76;68.62;100583.19;4960513;28;2411;-85
2023/08/22 01:43:32;;;;;;;;;;;;;;;18.68;68.85;100586.41;4957977;28;2127;-84
2023/08/22 01:46:24;;;;;;;;;;;;;;;18.69;68.98;100586.16;4957930;28;2159;-84
2023/08/22 01:49:16;;;;;;;;;;;;;;;18.76;68.41;100589.44;4958073;28;2226;-83
2023/08/22 01:52:08;;;;;;;;;;;;;;;18.63;68.82;100579.06;4955442;28;2565;-84
2023/08/22 01:55:00;;;;;;;;;;;;;;;18.74;68.46;100585.38;4959358;28;2091;-84
2023/08/22 01:57:52;;;;;;;;;;;;;;;18.74;68.42;100582.66;4954271;28;2178;-84
2023/08/22 02:00:44;;;;;;;;;;;;;;;18.71;68.51;100574.97;4955857;28;2134;-84
2023/08/22 02:03:36;;;;;;;;;;;;;;;18.69;68.23;100577.16;4953338;28;2025;-84
2023/08/22 02:06:28;;;;;;;;;;;;;;;18.71;68.19;100583.97;4956548;28;1431;-84
2023/08/22 02:09:20;;;;;;;;;;;;;;;18.83;67.79;100584.56;4952993;28;1511;-84
2023/08/22 02:12:12;;;;;;;;;;;;;;;18.78;67.73;100579.09;4958514;28;1974;-83
2023/08/22 02:15:04;;;;;;;;;;;;;;;18.74;68.25;100572.56;4959811;28;1768;-84
2023/08/22 02:17:56;;;;;;;;;;;;;;;18.66;68.22;100572.25;4958525;28;1055;-84
2023/08/22 02:20:48;;;;;;;;;;;;;;;18.76;67.91;100570.34;4950347;28;1749;-84
2023/08/22 02:23:40;;;;;;;;;;;;;;;18.72;67.96;100561.06;4960225;28;1500;-86
2023/08/22 02:26:33;;;;;;;;;;;;;;;18.58;68.49;100557.22;4956748;28;1456;-85
2023/08/22 02:29:25;;;;;;;;;;;;;;;18.64;68.28;100558.88;4958747;28;1449;-84
2023/08/22 02:32:17;;;;;;;;;;;;;;;18.56;68.66;100559.41;4955117;28;1964;-86
2023/08/22 02:35:09;;;;;;;;;;;;;;;18.60;68.20;100553.16;4956260;28;1966;-85
2023/08/22 02:38:01;;;;;;;;;;;;;;;18.52;68.18;100553.69;4956103;28;2208;-84
2023/08/22 02:40:53;;;;;;;;;;;;;;;18.51;68.19;100571.16;4954660;28;2131;-85
2023/08/22 02:43:45;;;;;;;;;;;;;;;18.64;67.98;100558.88;4956397;28;2228;-84
2023/08/22 02:46:37;;;;;;;;;;;;;;;18.55;67.99;100561.31;4963893;28;2106;-84
2023/08/22 02:49:29;;;;;;;;;;;;;;;18.66;67.66;100562.16;4957641;28;1804;-85
2023/08/22 02:52:21;;;;;;;;;;;;;;;18.49;68.06;100564.31;4949096;29;1214;-85
2023/08/22 02:55:13;;;;;;;;;;;;;;;18.55;68.09;100572.22;4948761;29;1420;-85
2023/08/22 02:58:06;;;;;;;;;;;;;;;18.45;67.98;100564.06;4958452;28;1619;-84
2023/08/22 03:00:57;;;;;;;;;;;;;;;18.45;68.04;100563.25;4964866;28;1540;-86
2023/08/22 03:03:51;;;;;;;;;;;;;;;18.39;68.18;100565.97;4949753;28;1472;-86
2023/08/22 03:06:42;;;;;;;;;;;;;;;18.50;67.82;100549.59;4955689;29;1405;-86
2023/08/22 03:09:34;;;;;;;;;;;;;;;18.39;68.38;100554.25;4949870;28;2175;-85
2023/08/22 03:12:26;;;;;;;;;;;;;;;18.49;67.86;100556.16;4957481;28;2068;-85
2023/08/22 03:15:18;;;;;;;;;;;;;;;18.51;67.48;100553.97;4953418;28;2032;-84
2023/08/22 03:18:10;;;;;;;;;;;;;;;18.36;68.17;100557.50;4957866;28;2285;-84
2023/08/22 03:21:02;;;;;;;;;;;;;;;18.34;68.34;100552.31;4957602;28;2183;-83
2023/08/22 03:23:54;;;;;;;;;;;;;;;18.24;68.56;100554.22;4959149;28;2178;-84
2023/08/22 03:26:46;;;;;;;;;;;;;;;18.17;68.85;100544.38;4952097;28;2048;-84
2023/08/22 03:29:38;;;;;;;;;;;;;;;18.25;68.43;100562.13;4956155;28;2126;-85
2023/08/22 03:32:30;;;;;;;;;;;;;;;18.32;68.30;100565.41;4954483;28;2080;-85
2023/08/22 03:35:22;;;;;;;;;;;;;;;18.25;68.36;100570.31;4954010;28;2121;-84
2023/08/22 03:38:14;;;;;;;;;;;;;;;18.22;68.44;100576.28;4957722;28;2468;-84
2023/08/22 03:41:06;;;;;;;;;;;;;;;18.32;67.91;100559.97;4955097;28;2183;-85
2023/08/22 03:43:58;;;;;;;;;;;;;;;18.35;67.88;100561.31;4953603;28;2052;-85
2023/08/22 03:46:50;;;;;;;;;;;;;;;18.27;67.90;100561.88;4956411;28;2054;-85
2023/08/22 03:49:42;;;;;;;;;;;;;;;18.09;68.64;100569.47;4955007;28;2114;-84
2023/08/22 03:52:33;;;;;;;;;;;;;;;18.14;68.09;100565.91;4956222;28;2426;-84
2023/08/22 03:55:25;;;;;;;;;;;;;;;18.01;68.91;100575.44;4954665;28;2496;-85
2023/08/22 03:58:17;;;;;;;;;;;;;;;18.15;68.35;100562.13;4954985;28;1937;-85
2023/08/22 04:01:09;;;;;;;;;;;;;;;18.03;68.60;100562.38;4944548;28;1431;-85
2023/08/22 04:04:01;;;;;;;;;;;;;;;18.21;67.89;100554.78;4955198;29;1195;-83
2023/08/22 04:06:53;;;;;;;;;;;;;;;18.12;68.18;100560.75;4956523;29;1345;-84
2023/08/22 04:09:45;;;;;;;;;;;;;;;18.01;68.52;100567.25;4953663;28;1878;-84
2023/08/22 04:12:37;;;;;;;;;;;;;;;18.07;68.16;100560.72;4952919;28;1970;-84
2023/08/22 04:15:29;;;;;;;;;;;;;;;18.20;67.67;100553.13;4963536;28;1467;-85
2023/08/22 04:18:21;;;;;;;;;;;;;;;18.05;68.22;100557.44;4959198;28;1434;-85
2023/08/22 04:21:13;;;;;;;;;;;;;;;18.02;68.13;100557.19;4962191;23;3261;-85
2023/08/22 04:24:05;;;;;;;;;;;;;;;18.01;68.31;100561.00;4954754;28;2686;-85
2023/08/22 04:26:57;;;;;;;;;;;;;;;18.07;67.91;100558.00;4944604;29;1614;-85
2023/08/22 04:29:49;;;;;;;;;;;;;;;18.02;68.27;100549.00;4955873;28;1352;-85
2023/08/22 04:32:41;;;;;;;;;;;;;;;17.96;68.37;100553.63;4947455;28;2208;-85
2023/08/22 04:35:35;;;;;;;;;;;;;;;17.94;68.11;100550.34;4946509;28;2233;-85
2023/08/22 04:38:27;;;;;;;;;;;;;;;17.92;68.17;100547.88;4947427;28;1978;-85
2023/08/22 04:41:19;;;;;;;;;;;;;;;18.06;67.64;100540.03;4943497;28;2221;-85
2023/08/22 04:44:11;;;;;;;;;;;;;;;17.96;68.10;100544.63;4944717;28;2191;-84
2023/08/22 04:47:03;;;;;;;;;;;;;;;17.99;67.89;100541.38;4947659;28;2239;-83
2023/08/22 04:49:55;;;;;;;;;;;;;;;17.94;68.03;100547.59;4948645;28;2100;-84
2023/08/22 04:52:47;;;;;;;;;;;;;;;17.83;68.39;100552.22;4947025;28;2279;-85
2023/08/22 04:55:39;;;;;;;;;;;;;;;17.91;67.91;100545.41;4947485;28;2207;-83
2023/08/22 04:58:31;;;;;;;;;;;;;;;17.78;68.27;100548.66;4952411;28;2330;-85
2023/08/22 05:01:23;;;;;;;;;;;;;;;17.84;68.08;100550.31;4953331;28;2285;-83
2023/08/22 05:04:15;;;;;;;;;;;;;;;17.91;67.78;100554.44;4952294;28;1974;-85
2023/08/22 05:07:07;;;;;;;;;;;;;;;17.89;67.84;100553.88;4949661;28;1438;-84
2023/08/22 05:09:59;;;;;;;;;;;;;;;17.87;67.75;100557.94;4952495;28;1264;-85
2023/08/22 05:12:51;;;;;;;;;;;;;;;17.78;68.38;100563.09;4954702;28;2648;-84
2023/08/22 05:15:43;;;;;;;;;;;;;;;17.89;67.68;100564.78;4949373;28;2223;-85
2023/08/22 05:18:35;;;;;;;;;;;;;;;17.70;68.18;100563.56;4953449;28;2753;-84
2023/08/22 05:21:27;;;;;;;;;;;;;;;17.79;67.85;100577.53;4960723;28;1802;-84
2023/08/22 05:24:19;;;;;;;;;;;;;;;17.75;67.77;100579.94;4976847;28;1628;-85
2023/08/22 05:27:13;;;;;;;;;;;;;;;17.82;67.96;100577.00;4974170;28;1685;-85
2023/08/22 05:30:05;;;;;;;;;;;;;;;17.87;67.58;100574.31;4976526;28;2046;-84
2023/08/22 05:32:57;;;;;;;;;;;;;;;17.75;67.73;100573.69;4975525;28;1820;-85
2023/08/22 05:35:49;;;;;;;;;;;;;;;17.80;67.60;100576.47;4976852;28;1577;-83
2023/08/22 05:38:41;;;;;;;;;;;;;;;17.77;67.81;100574.25;4973310;28;1648;-84
2023/08/22 05:41:33;;;;;;;;;;;;;;;17.82;67.42;100571.56;4975579;28;1859;-84
2023/08/22 05:44:24;;;;;;;;;;;;;;;17.80;67.63;100566.38;4970989;28;2031;-85
2023/08/22 05:47:16;;;;;;;;;;;;;;;17.80;67.57;100568.28;4968567;28;2190;-85
2023/08/22 05:50:08;;;;;;;;;;;;;;;17.71;67.77;100557.06;4971855;28;2336;-85
2023/08/22 05:53:00;;;;;;;;;;;;;;;17.73;67.38;100568.50;4971246;28;2300;-86
2023/08/22 05:55:52;;;;;;;;;;;;;;;17.74;67.80;100563.88;4974930;28;1682;-84
2023/08/22 05:58:44;;;;;;;;;;;;;;;17.92;66.92;100574.31;4975348;28;1772;-84
2023/08/22 06:01:36;;;;;;;;;;;;;;;17.74;67.36;100563.88;4972930;28;1594;-86
2023/08/22 06:04:28;;;;;;;;;;;;;;;17.74;67.29;100561.97;4972373;28;2139;-85
2023/08/22 06:07:20;;;;;;;;;;;;;;;17.81;67.24;100559.03;4975487;28;2222;-87
2023/08/22 06:10:12;;;;;;;;;;;;;;;17.75;67.22;100555.44;4965801;28;2302;-85
2023/08/22 06:13:04;;;;;;;;;;;;;;;17.65;67.61;100569.03;4970762;28;2173;-85
2023/08/22 06:15:56;;;;;;;;;;;;;;;17.69;67.55;100562.75;4966929;28;2170;-85
2023/08/22 06:18:48;;;;;;;;;;;;;;;17.73;67.27;100562.22;4961576;28;2178;-86
2023/08/22 06:21:40;;;;;;;;;;;;;;;17.68;67.29;100558.41;4968677;28;2288;-85
2023/08/22 06:24:32;;;;;;;;;;;;;;;17.83;66.80;100562.31;4972116;28;2095;-85
2023/08/22 06:27:24;;;;;;;;;;;;;;;17.68;67.26;100561.13;4967702;28;2328;-86
2023/08/22 06:30:16;;;;;;;;;;;;;;;17.68;67.51;100557.59;4969260;28;2252;-86
2023/08/22 06:33:08;;;;;;;;;;;;;;;17.60;67.43;100560.81;4969297;28;2189;-84
2023/08/22 06:36:00;;;;;;;;;;;;;;;17.63;67.21;100557.56;4957432;28;2304;-84
2023/08/22 06:38:53;;;;;;;;;;;;;;;17.57;67.36;100561.38;4968690;28;2156;-85
2023/08/22 06:41:44;;;;;;;;;;;;;;;17.48;67.65;100558.31;4967718;28;2178;-86
2023/08/22 06:44:36;;;;;;;;;;;;;;;17.50;67.85;100558.88;4965395;28;2036;-86
2023/08/22 06:47:28;;;;;;;;;;;;;;;17.70;66.85;100561.66;4966278;28;2172;-84
2023/08/22 06:50:20;;;;;;;;;;;;;;;17.47;67.91;100568.41;4969824;28;2241;-86
2023/08/22 06:53:12;;;;;;;;;;;;;;;17.26;68.61;100563.91;4968456;28;2284;-85
2023/08/22 06:56:04;;;;;;;;;;;;;;;17.19;68.68;100558.72;4969014;28;2361;-86
2023/08/22 06:58:56;;;;;;;;;;;;;;;17.49;67.71;100562.69;4970048;28;3195;-85
2023/08/22 07:01:48;;;;;;;;;;;;;;;17.43;67.73;100561.00;4966100;28;3690;-85
2023/08/22 07:04:40;;;;;;;;;;;;;;;17.41;68.00;100566.75;4967224;28;2795;-85
2023/08/22 07:07:32;;;;;;;;;;;;;;;17.34;68.23;100563.44;4964119;28;2164;-85
2023/08/22 07:10:25;;;;;;;;;;;;;;;17.31;68.28;100569.41;4965245;28;2303;-85
2023/08/22 07:16:21;;;;;;;;;;;;;;;17.63;67.05;100563.03;4966607;28;2312;-85
2023/08/22 07:19:12;;;;;;;;;;;;;;;17.33;68.02;100567.25;4971147;28;2164;-85
2023/08/22 07:22:04;;;;;;;;;;;;;;;17.19;68.40;100568.78;4966759;28;2158;-85
2023/08/22 07:24:56;;;;;;;;;;;;;;;17.09;68.83;100560.53;4969923;28;1819;-85
2023/08/22 07:27:48;;;;;;;;;;;;;;;17.12;68.60;100565.47;4965536;28;2433;-86
2023/08/22 07:30:40;;;;;;;;;;;;;;;17.18;68.50;100564.44;4970542;28;2250;-86
2023/08/22 07:33:32;;;;;;;;;;;;;;;17.18;68.53;100562.53;4968371;28;2361;-85
2023/08/22 07:36:24;;;;;;;;;;;;;;;17.18;68.51;100565.25;4960142;28;4982;-86
2023/08/22 07:39:17;;;;;;;;;;;;;;;17.09;68.64;100557.81;4966083;28;2178;-85
2023/08/22 07:42:09;;;;;;;;;;;;;;;17.00;68.99;100562.94;4971312;28;2288;-84
2023/08/22 07:45:02;;;;;;;;;;;;;;;17.18;68.46;100559.00;4964216;28;2077;-85
2023/08/22 07:47:55;;;;;;;;;;;;;;;17.10;68.66;100557.56;4966031;28;2246;-85
2023/08/22 07:50:47;;;;;;;;;;;;;;;17.01;68.96;100562.69;4963864;28;1967;-87
2023/08/22 07:53:39;;;;;;;;;;;;;;;17.09;68.68;100561.38;4970560;28;5135;-87
2023/08/22 07:56:33;;;;;;;;;;;;;;;16.97;69.05;100563.47;4963246;28;2357;-87
2023/08/22 07:59:25;;;;;;;;;;;;;;;17.05;68.85;100578.50;4967366;28;2296;-86
2023/08/22 08:02:17;;;;;;;;;;;;;;;17.07;68.80;100563.53;4964096;28;2225;-86
2023/08/22 08:05:10;;;;;;;;;;;;;;;17.14;68.58;100569.56;4964315;28;2182;-86
2023/08/22 08:08:01;;;;;;;;;;;;;;;16.95;69.06;100566.47;4971675;28;2350;-87
2023/08/22 08:10:53;;;;;;;;;;;;;;;16.99;68.93;100573.00;4968407;28;2201;-86
2023/08/22 08:13:46;;;;;;;;;;;;;;;16.93;69.18;100571.34;4970477;28;2218;-86
2023/08/22 08:16:38;;;;;;;;;;;;;;;17.05;68.90;100565.69;4966551;28;2055;-87
2023/08/22 08:19:29;;;;;;;;;;;;;;;16.92;69.19;100564.25;4962931;28;1955;-88
2023/08/22 08:22:20;;;;;;;;;;;;;;;16.89;69.35;100558.53;4967792;28;2039;-87
2023/08/22 08:25:12;;;;;;;;;;;;;;;16.94;69.34;100561.25;4963006;28;2015;-88
2023/08/22 08:28:04;;;;;;;;;;;;;;;16.88;69.38;100549.53;4968750;28;2316;-87
2023/08/22 08:30:56;;;;;;;;;;;;;;;16.89;69.45;100561.25;4968690;28;2096;-88
2023/08/22 08:33:47;;;;;;;;;;;;;;;16.87;69.38;100556.06;4965193;28;2031;-88
2023/08/22 08:36:39;;;;;;;;;;;;;;;16.89;69.31;100555.81;4961714;28;2118;-87
2023/08/22 08:39:31;;;;;;;;;;;;;;;16.92;69.21;100549.84;4969116;28;2425;-87
2023/08/22 08:42:23;;;;;;;;;;;;;;;16.90;69.40;100550.09;4963892;28;2061;-85
2023/08/22 08:45:15;;;;;;;;;;;;;;;16.91;69.50;100559.06;4972586;28;2334;-87
2023/08/22 08:48:07;;;;;;;;;;;;;;;17.15;68.56;100557.63;4970248;28;1446;-86
2023/08/22 08:50:58;;;;;;;;;;;;;;;17.14;68.59;100564.13;4973422;28;2154;-88
2023/08/22 08:53:50;;;;;;;;;;;;;;;17.22;68.09;100562.81;4977952;28;1521;-88
2023/08/22 08:56:42;;;;;;;;;;;;;;;17.21;68.12;100559.28;4967356;28;1590;-86
2023/08/22 08:59:34;;;;;;;;;;;;;;;17.11;68.48;100559.22;4967645;28;1674;-89
2023/08/22 09:02:26;;;;;;;;;;;;;;;17.15;68.58;100554.09;4970235;28;2076;-88
2023/08/22 09:05:18;;;;;;;;;;;;;;;17.01;68.83;100556.44;4974071;28;1999;-87
2023/08/22 09:08:10;;;;;;;;;;;;;;;17.00;69.12;100550.19;4968276;28;1841;-86
2023/08/22 09:11:03;;;;;;;;;;;;;;;16.91;69.35;100548.19;4966816;28;1854;-88
2023/08/22 09:13:55;;;;;;;;;;;;;;;16.92;69.49;100547.13;4972872;28;2032;-88
2023/08/22 09:16:47;;;;;;;;;;;;;;;16.92;69.55;100544.41;4970817;28;1314;-87
2023/08/22 09:19:39;;;;;;;;;;;;;;;16.94;69.54;100551.22;4975319;28;1304;-87
2023/08/22 09:22:31;;;;;;;;;;;;;;;16.89;69.63;100547.66;4965708;28;2159;-87
2023/08/22 09:25:23;;;;;;;;;;;;;;;16.88;69.74;100548.72;4956164;28;2186;-86
2023/08/22 09:28:15;;;;;;;;;;;;;;;16.88;69.74;100552.25;4973600;28;1396;-88
2023/08/22 09:31:07;;;;;;;;;;;;;;;16.88;69.73;100549.53;4970471;28;2001;-89
2023/08/22 09:33:59;;;;;;;;;;;;;;;16.90;69.73;100552.00;4967029;28;2054;-88
2023/08/22 09:36:51;;;;;;;;;;;;;;;16.89;69.68;100548.47;4965332;28;2224;-87
2023/08/22 09:39:43;;;;;;;;;;;;;;;16.92;69.74;100547.13;4967818;28;2077;-86
2023/08/22 09:42:36;;;;;;;;;;;;;;;16.92;69.72;100552.56;4969608;28;2567;-86
2023/08/22 09:45:28;;;;;;;;;;;;;;;16.94;69.74;100545.78;4971350;28;2075;-89
2023/08/22 09:48:19;;;;;;;;;;;;;;;16.97;69.67;100545.25;4972604;28;1830;-93
2023/08/22 09:51:11;;;;;;;;;;;;;;;17.05;69.33;100548.56;4975548;28;2139;-86
2023/08/22 09:54:03;;;;;;;;;;;;;;;17.17;69.01;100549.16;4967983;28;2280;-87
2023/08/22 09:56:55;;;;;;;;;;;;;;;17.37;68.30;100551.19;4971729;28;2050;-86
2023/08/22 09:59:48;;;;;;;;;;;;;;;17.23;68.65;100546.22;4968292;28;1944;-88
2023/08/22 10:02:39;;;;;;;;;;;;;;;17.37;68.35;100546.56;4967156;28;2087;-88
2023/08/22 10:05:30;;;;;;;;;;;;;;;17.37;68.19;100546.56;4973692;28;1945;-90
2023/08/22 10:08:23;;;;;;;;;;;;;;;17.43;67.97;100539.25;4972335;28;1816;-89
2023/08/22 10:11:14;;;;;;;;;;;;;;;17.36;68.29;100544.94;4979800;28;1233;-88
2023/08/22 10:14:06;;;;;;;;;;;;;;;17.44;68.23;100549.03;4970056;28;2285;-94
2023/08/22 10:16:58;;;;;;;;;;;;;;;17.32;68.64;100540.28;4982503;28;1852;-94
2023/08/22 10:19:51;;;;;;;;;;;;;;;17.33;68.53;100545.47;4990825;28;1443;-95
2023/08/22 10:22:43;;;;;;;;;;;;;;;17.27;68.82;100545.72;4981465;28;2307;-94
2023/08/22 10:25:35;;;;;;;;;;;;;;;17.24;69.10;100545.16;4984737;28;2241;-90
2023/08/22 10:28:27;;;;;;;;;;;;;;;17.17;69.22;100536.38;4975665;28;2218;-91
2023/08/22 10:31:19;;;;;;;;;;;;;;;17.19;69.50;100542.38;4974826;28;2189;-92
2023/08/22 10:34:11;;;;;;;;;;;;;;;17.17;69.60;100541.00;4978411;28;2087;-94
2023/08/22 10:37:03;;;;;;;;;;;;;;;17.16;69.61;100536.66;4977802;28;1584;-93
2023/08/22 10:39:55;;;;;;;;;;;;;;;17.14;69.82;100545.06;4987553;28;1807;-93
2023/08/22 10:43:04;;;;;;;;;;;;;;;17.13;69.77;100534.47;4982983;28;1416;-93
2023/08/22 10:46:03;;;;;;;;;;;;;;;17.16;69.83;100531.22;4990485;28;2272;-93
2023/08/22 10:48:54;;;;;;;;;;;;;;;17.16;69.81;100531.22;4970125;28;1856;-94
2023/08/22 10:51:49;;;;;;;;;;;;;;;17.17;69.75;100522.78;4980358;28;1347;-95
2023/08/22 10:54:47;;;;;;;;;;;;;;;17.19;69.95;100519.81;4985110;28;1301;-92
2023/08/22 10:57:39;;;;;;;;;;;;;;;17.21;69.78;100515.75;4982437;28;1602;-93
2023/08/22 11:00:31;;;;;;;;;;;;;;;17.20;70.02;100522.25;4973042;28;1601;-95
2023/08/22 11:03:24;;;;;;;;;;;;;;;17.21;70.03;100520.38;4978665;28;1883;-94
2023/08/22 11:06:17;;;;;;;;;;;;;;;17.21;69.97;100513.03;4982211;28;1213;-94
2023/08/22 11:09:11;;;;;;;;;;;;;;;17.22;69.97;100516.56;4985985;28;2241;-94
2023/08/22 11:12:03;;;;;;;;;;;;;;;17.23;69.98;100507.28;4961297;28;1543;-93
2023/08/22 11:14:55;;;;;;;;;;;;;;;17.24;69.79;100509.75;4979205;28;1330;-93
2023/08/22 11:17:52;;;;;;;;;;;;;;;17.24;69.91;100508.94;4980831;28;2304;-94
2023/08/22 11:20:44;;;;;;;;;;;;;;;17.27;69.99;100513.06;4988016;28;2176;-93
2023/08/22 11:23:37;;;;;;;;;;;;;;;17.28;70.02;100512.78;4984436;28;1887;-93
2023/08/22 11:26:29;;;;;;;;;;;;;;;17.30;70.01;100518.78;4985898;28;1382;-92
2023/08/22 11:29:22;;;;;;;;;;;;;;;17.30;70.15;100513.34;4979813;28;1530;-95
2023/08/22 11:32:14;;;;;;;;;;;;;;;17.31;70.20;100514.97;4975315;28;2709;-93
2023/08/22 11:35:06;;;;;;;;;;;;;;;17.31;70.18;100504.06;4976574;28;2088;-93
2023/08/22 11:37:58;;;;;;;;;;;;;;;17.33;70.03;100514.72;4979549;28;2084;-92
2023/08/22 11:40:50;;;;;;;;;;;;;;;17.33;70.09;100510.06;4972450;28;2237;-92
2023/08/22 11:43:42;;;;;;;;;;;;;;;17.35;70.12;100507.06;4974113;28;1974;-93
2023/08/22 11:46:36;;;;;;;;;;;;;;;17.36;70.32;100508.72;4987589;28;5382;-94
2023/08/22 11:49:27;;;;;;;;;;;;;;;17.37;70.31;100511.16;4974528;28;2269;-93
2023/08/22 11:52:19;;;;;;;;;;;;;;;17.38;70.42;100506.53;4978133;28;2325;-91
2023/08/22 11:55:12;;;;;;;;;;;;;;;17.39;70.44;100510.91;4978151;28;1487;-93
2023/08/22 11:58:04;;;;;;;;;;;;;;;17.40;70.18;100507.09;4973983;28;2177;-91
2023/08/22 12:00:56;;;;;;;;;;;;;;;17.41;70.14;100509.56;4973932;28;2516;-92
2023/08/22 12:03:48;;;;;;;;;;;;;;;17.42;70.12;100508.47;4975494;28;5074;-94
2023/08/22 12:06:39;;;;;;;;;;;;;;;17.42;69.93;100504.94;4979200;28;1860;-92
2023/08/22 12:09:31;;;;;;;;;;;;;;;17.44;69.82;100510.91;4965953;28;2502;-90
2023/08/22 12:12:24;;;;;;;;;;;;;;;17.46;70.15;100509.56;4967417;28;2247;-93
2023/08/22 12:15:15;;;;;;;;;;;;;;;17.47;70.19;100508.50;4969550;28;2395;-93
2023/08/22 12:18:07;;;;;;;;;;;;;;;17.48;70.16;100501.97;4977357;28;2411;-87
2023/08/22 12:21:00;;;;;;;;;;;;;;;17.49;70.45;100509.03;4970843;28;2087;-90
2023/08/22 12:23:52;;;;;;;;;;;;;;;17.49;70.43;100506.31;4971356;28;2355;-91
2023/08/22 12:26:44;;;;;;;;;;;;;;;17.51;70.24;100505.25;4961578;28;2189;-93
2023/08/22 12:29:35;;;;;;;;;;;;;;;17.54;70.59;100496.53;4970681;28;2151;-91
2023/08/22 12:32:28;;;;;;;;;;;;;;;17.54;70.35;100491.91;4961556;28;2352;-91
2023/08/22 12:35:19;;;;;;;;;;;;;;;17.56;70.47;100494.34;4964679;28;2695;-91
2023/08/22 12:38:12;;;;;;;;;;;;;;;17.57;70.46;100499.53;4965808;28;2305;-91
2023/08/22 12:41:07;;;;;;;;;;;;;;;17.59;70.80;100491.09;4970884;28;2484;-89
2023/08/22 12:43:58;;;;;;;;;;;;;;;17.59;70.53;100491.94;4964896;28;2336;-88
2023/08/22 12:46:51;;;;;;;;;;;;;;;17.61;70.56;100491.66;4966614;28;2281;-89
2023/08/22 12:49:43;;;;;;;;;;;;;;;17.62;70.66;100491.41;4963771;28;2287;-91
2023/08/22 12:52:35;;;;;;;;;;;;;;;17.62;70.84;100485.97;4966313;28;2197;-89
2023/08/22 12:55:26;;;;;;;;;;;;;;;17.64;70.65;100485.66;4962141;28;2087;-91
2023/08/22 12:58:19;;;;;;;;;;;;;;;17.66;70.76;100483.50;4959264;28;2178;-90
2023/08/22 13:01:10;;;;;;;;;;;;;;;17.67;70.90;100488.66;4967145;28;2278;-90
2023/08/22 13:04:02;;;;;;;;;;;;;;;17.68;70.71;100487.59;4970261;28;2181;-93
2023/08/22 13:06:53;;;;;;;;;;;;;;;17.69;70.84;100491.13;4964171;28;1870;-91
2023/08/22 13:09:46;;;;;;;;;;;;;;;17.70;71.09;100492.75;4975698;28;1999;-89
2023/08/22 13:12:37;;;;;;;;;;;;;;;17.71;70.91;100494.44;4967486;28;1592;-92
2023/08/22 13:15:29;;;;;;;;;;;;;;;17.73;70.89;100496.88;4969363;28;1641;-90
2023/08/22 13:18:21;;;;;;;;;;;;;;;17.74;70.78;100499.34;4965374;28;1554;-90
2023/08/22 13:21:13;;;;;;;;;;;;;;;17.75;70.77;100497.41;4977146;28;1682;-91
2023/08/22 13:24:05;;;;;;;;;;;;;;;17.78;70.82;100496.91;4972990;28;1957;-89
2023/08/22 13:26:57;;;;;;;;;;;;;;;17.77;70.84;100504.25;4971844;28;1940;-94
2023/08/22 13:29:48;;;;;;;;;;;;;;;17.79;70.89;100498.53;4975913;28;1765;-88
2023/08/22 13:32:41;;;;;;;;;;;;;;;17.81;70.99;100496.38;4973534;28;1803;-91
2023/08/22 13:35:33;;;;;;;;;;;;;;;17.82;71.25;100495.28;4980189;28;2363;-89
2023/08/22 13:38:24;;;;;;;;;;;;;;;17.82;71.34;100493.38;4968693;28;1711;-93
2023/08/22 13:41:16;;;;;;;;;;;;;;;17.84;70.97;100493.94;4964972;28;2295;-91
2023/08/22 13:44:08;;;;;;;;;;;;;;;17.86;71.09;100496.41;4968318;28;2217;-92
2023/08/22 13:47:00;;;;;;;;;;;;;;;17.86;70.95;100482.78;4970331;28;2083;-90
2023/08/22 13:49:53;;;;;;;;;;;;;;;17.88;71.07;100484.16;4966428;28;2193;-91
2023/08/22 13:52:44;;;;;;;;;;;;;;;17.90;71.17;100481.94;4973105;28;2299;-89
2023/08/22 13:55:37;;;;;;;;;;;;;;;17.90;71.20;100476.50;4968120;28;2190;-90
2023/08/22 13:58:29;;;;;;;;;;;;;;;17.91;71.30;100480.88;4972311;28;2304;-92
2023/08/22 14:01:21;;;;;;;;;;;;;;;17.95;71.04;100472.16;4973447;28;2685;-91
2023/08/22 14:04:13;;;;;;;;;;;;;;;17.97;71.40;100489.03;4972794;28;2331;-89
2023/08/22 14:07:04;;;;;;;;;;;;;;;17.98;71.18;100480.59;4967320;28;2173;-91
2023/08/22 14:09:55;;;;;;;;;;;;;;;17.98;71.55;100475.16;4978508;28;2355;-87
2023/08/22 14:12:48;;;;;;;;;;;;;;;17.99;71.32;100484.97;4971700;28;2431;-93
2023/08/22 14:15:40;;;;;;;;;;;;;;;18.01;71.35;100480.06;4970087;28;2279;-90
2023/08/22 14:18:32;;;;;;;;;;;;;;;18.02;71.34;100475.44;4970227;28;2103;-90
2023/08/22 14:21:29;;;;;;;;;;;;;;;18.04;71.33;100476.78;4971531;28;2028;-90
2023/08/22 14:24:21;;;;;;;;;;;;;;;18.07;71.22;100475.44;4970738;28;1906;-92
2023/08/22 14:27:12;;;;;;;;;;;;;;;18.07;71.19;100475.44;4976637;28;2013;-93
2023/08/22 14:30:04;;;;;;;;;;;;;;;18.08;71.39;100480.59;4972707;28;1623;-92
2023/08/22 14:32:56;;;;;;;;;;;;;;;18.10;71.21;100474.91;4971944;28;2023;-91
2023/08/22 14:35:48;;;;;;;;;;;;;;;18.11;71.45;100473.78;4973052;28;1561;-91
2023/08/22 14:38:40;;;;;;;;;;;;;;;18.12;71.38;100479.00;4975184;28;1671;-93
2023/08/22 14:41:31;;;;;;;;;;;;;;;18.14;71.54;100481.44;4966859;28;2122;-91
2023/08/22 14:44:24;;;;;;;;;;;;;;;18.16;71.58;100473.81;4971482;28;2338;-91
2023/08/22 14:47:16;;;;;;;;;;;;;;;18.17;71.56;100464.53;4969321;28;2352;-91
2023/08/22 14:50:08;;;;;;;;;;;;;;;18.17;71.35;100468.06;4965794;28;2309;-89
2023/08/22 14:53:00;;;;;;;;;;;;;;;18.20;71.57;100474.06;4971088;28;2406;-89
2023/08/22 14:55:52;;;;;;;;;;;;;;;18.21;71.54;100468.38;4965073;28;2676;-91
2023/08/22 14:58:44;;;;;;;;;;;;;;;18.23;71.41;100468.06;4971186;28;2203;-91
2023/08/22 15:01:36;;;;;;;;;;;;;;;18.24;71.59;100472.47;4971460;28;2061;-90